Time;durP1;ratioP1;P1;durP2;ratioP2;P2;SDS_P1;SDS_P2;PMS_P1;PMS_P2;Temp;Humidity;BMP_temperature;BMP_pressure;BME280_temperature;BME280_humidity;BME280_pressure;Samples;Min_cycle;Max_cycle;Signal;HPM_P1;HPM_P2
2022/03/24 00:01:45;;;;;;;197.02;80.83;;;;;;;0.61;47.34;99985.50;4152467;83;21968;-83
2022/03/24 00:07:48;;;;;;;220.95;86.87;;;;;;;0.53;48.05;99986.69;4157738;83;21054;-82
2022/03/24 00:13:51;;;;;;;182.15;75.05;;;;;;;0.40;48.05;99975.23;4160047;84;21017;-83
2022/03/24 00:19:52;;;;;;;252.72;107.55;;;;;;;0.36;49.23;99973.64;4053191;86;21059;-83
2022/03/24 00:25:56;;;;;;;233.35;92.37;;;;;;;0.32;51.97;99974.50;4171966;83;21562;-83
2022/03/24 00:31:58;;;;;;;252.53;97.67;;;;;;;0.14;49.06;99964.45;4056906;86;21045;-82
2022/03/24 00:38:01;;;;;;;236.72;88.72;;;;;;;0.02;49.13;99977.48;4158905;84;21038;-82
2022/03/24 00:44:03;;;;;;;186.90;76.35;;;;;;;-0.18;51.71;99971.71;4146719;83;21634;-82
2022/03/24 00:50:13;;;;;;;247.33;95.67;;;;;;;-0.22;51.45;99964.73;4168914;84;21567;-83
2022/03/24 00:56:18;;;;;;;199.97;78.07;;;;;;;-0.30;50.92;99969.93;4055432;86;21031;-84
2022/03/24 01:02:20;;;;;;;205.87;81.90;;;;;;;-0.23;51.45;99977.13;4163700;84;21028;-82
2022/03/24 01:15:11;;;;;;;207.93;82.87;;;;;;;-0.47;53.03;99970.86;4256340;83;21067;-83
2022/03/24 01:21:16;;;;;;;204.10;77.33;;;;;;;-0.10;53.26;99959.81;4243895;83;21597;-82
2022/03/24 01:27:16;;;;;;;171.87;68.20;;;;;;;-0.47;51.33;99974.33;4253066;82;20997;-82
2022/03/24 01:33:26;;;;;;;193.00;74.30;;;;;;;-0.63;52.90;99968.81;4252319;83;21076;-82
2022/03/24 01:39:28;;;;;;;169.13;66.33;;;;;;;-0.80;52.71;99962.18;4251007;83;21026;-83
2022/03/24 01:45:30;;;;;;;197.13;75.90;;;;;;;-0.87;52.81;99953.07;4244111;83;21608;-82
2022/03/24 01:51:33;;;;;;;175.53;68.30;;;;;;;-0.86;53.66;99954.67;4238136;83;21036;-82
2022/03/24 01:57:36;;;;;;;167.27;67.13;;;;;;;-0.75;54.21;99960.81;4267239;83;20981;-82
2022/03/24 02:03:37;;;;;;;152.73;61.27;;;;;;;-0.58;54.71;99955.30;4253135;83;21100;-84
2022/03/24 02:09:40;;;;;;;160.37;65.07;;;;;;;-0.32;54.90;99968.05;4266217;82;21076;-81
2022/03/24 02:15:43;;;;;;;149.13;60.13;;;;;;;-0.48;53.12;99963.32;4247033;83;20977;-82
2022/03/24 02:21:46;;;;;;;164.83;64.93;;;;;;;-0.83;55.46;99954.11;4224309;83;21035;-81
2022/03/24 02:34:40;;;;;;;163.13;61.93;;;;;;;-1.29;53.99;99959.44;4254756;83;21058;-81
2022/03/24 02:40:43;;;;;;;143.17;57.93;;;;;;;-1.43;54.49;99949.55;4245497;83;21052;-81
2022/03/24 02:46:47;;;;;;;165.80;64.03;;;;;;;-1.43;55.06;99955.73;4236274;83;21055;-81
2022/03/24 02:52:56;;;;;;;172.03;65.83;;;;;;;-1.29;55.80;99957.28;4258206;83;21018;-81
2022/03/24 02:59:04;;;;;;;171.17;68.83;;;;;;;-1.42;56.24;99958.67;4256770;83;21019;-81
2022/03/24 03:05:06;;;;;;;200.47;79.77;;;;;;;-1.52;55.42;99966.77;4255163;83;21096;-80
2022/03/24 03:11:09;;;;;;;186.27;73.57;;;;;;;-1.58;56.03;99973.20;4196951;83;21092;-80
2022/03/24 03:17:11;;;;;;;203.27;78.67;;;;;;;-1.72;56.68;99988.27;4177060;84;21043;-81
2022/03/24 03:23:13;;;;;;;173.40;73.50;;;;;;;-1.73;57.03;99986.67;4182937;84;21865;-81
2022/03/24 03:29:16;;;;;;;172.27;68.50;;;;;;;-1.80;56.98;99995.00;4076077;84;21023;-80
2022/03/24 03:35:19;;;;;;;153.30;63.83;;;;;;;-1.81;56.82;99996.61;4062093;86;21087;-80
2022/03/24 03:41:22;;;;;;;131.67;55.27;;;;;;;-1.83;57.88;100003.59;4170812;83;21071;-80
2022/03/24 03:47:23;;;;;;;123.63;50.97;;;;;;;-1.83;58.21;100005.45;4141694;83;21059;-80
2022/03/24 03:53:24;;;;;;;116.90;49.50;;;;;;;-1.88;57.70;100012.98;4169262;84;21018;-80
2022/03/24 03:59:25;;;;;;;123.70;51.67;;;;;;;-1.91;58.33;100014.08;4174657;83;21061;-82
2022/03/24 04:05:27;;;;;;;114.37;48.20;;;;;;;-1.96;58.29;100017.54;4163305;84;21127;-80
2022/03/24 04:11:28;;;;;;;125.57;51.03;;;;;;;-2.00;58.88;100021.84;4223251;77;31865;-80
2022/03/24 04:17:30;;;;;;;113.87;47.10;;;;;;;-2.04;58.12;100019.44;4488775;77;20998;-80
2022/03/24 04:23:31;;;;;;;99.60;40.73;;;;;;;-1.98;59.07;100022.92;4394709;79;20963;-80
2022/03/24 04:29:33;;;;;;;103.63;41.57;;;;;;;-2.07;58.96;100021.29;4335114;81;21056;-83
2022/03/24 04:35:35;;;;;;;104.03;42.60;;;;;;;-2.17;59.05;100029.35;4394968;79;21023;-81
2022/03/24 04:41:36;;;;;;;115.40;46.50;;;;;;;-2.24;59.26;100037.39;4388732;80;21069;-81
2022/03/24 04:48:10;;;;;;;111.87;47.17;;;;;;;-2.33;58.53;100055.06;4397763;80;21032;-81
2022/03/24 04:54:11;;;;;;;117.40;47.30;;;;;;;-2.41;59.53;100059.07;4390965;80;21064;-82
2022/03/24 05:00:17;;;;;;;116.07;47.80;;;;;;;-2.36;60.57;100053.72;4394546;80;20999;-81
2022/03/24 05:06:19;;;;;;;117.72;48.80;;;;;;;-2.33;60.21;100061.23;4386380;80;21030;-83
2022/03/24 05:12:21;;;;;;;120.63;49.03;;;;;;;-2.33;60.59;100065.78;4379142;79;21002;-82
2022/03/24 05:18:27;;;;;;;93.43;39.87;;;;;;;-2.23;61.18;100072.52;4466652;78;21643;-81
2022/03/24 05:24:29;;;;;;;119.33;51.23;;;;;;;-2.04;61.76;100069.61;4459288;78;21477;-81
2022/03/24 05:30:30;;;;;;;116.37;49.10;;;;;;;-1.87;61.17;100080.36;4458264;78;20991;-81
2022/03/24 05:36:32;;;;;;;139.60;53.87;;;;;;;-1.75;60.74;100082.23;4460747;78;21684;-82
2022/03/24 05:42:33;;;;;;;94.67;43.30;;;;;;;-1.54;61.57;100082.23;4459653;78;21087;-82
2022/03/24 05:48:34;;;;;;;121.03;51.13;;;;;;;-1.35;61.63;100100.75;4456556;78;21061;-82
2022/03/24 05:54:40;;;;;;;120.47;49.45;;;;;;;-1.00;62.07;100091.29;4461558;78;20980;-83
2022/03/24 06:00:41;;;;;;;139.70;52.03;;;;;;;-0.70;61.84;100091.98;4460833;78;21031;-84
2022/03/24 06:06:44;;;;;;;131.87;50.17;;;;;;;-0.38;61.68;100092.92;4463930;78;21035;-82
2022/03/24 06:12:47;;;;;;;104.17;47.30;;;;;;;0.09;61.63;100098.57;4442830;78;20971;-83
2022/03/24 06:18:50;;;;;;;122.85;49.10;;;;;;;0.88;61.49;100105.70;4401125;80;21043;-84
2022/03/24 06:24:51;;;;;;;117.08;48.33;;;;;;;1.61;60.97;100103.55;4406057;80;20998;-83
2022/03/24 06:38:50;;;;;;;123.25;52.10;;;;;;;2.69;59.61;100108.11;4398721;80;21022;-83
2022/03/24 06:44:51;;;;;;;114.05;50.12;;;;;;;3.44;59.09;100115.41;4397997;80;21027;-85
2022/03/24 06:50:53;;;;;;;119.53;52.40;;;;;;;4.08;58.19;100112.41;4400636;80;21022;-84
2022/03/24 07:03:43;;;;;;;113.10;50.50;;;;;;;5.06;56.89;100121.42;4403744;80;21196;-85
2022/03/24 07:09:44;;;;;;;117.45;50.52;;;;;;;5.61;56.00;100119.33;4396793;80;21926;-84
2022/03/24 07:15:45;;;;;;;95.10;47.53;;;;;;;6.02;55.29;100118.42;4456080;77;21503;-85
2022/03/24 07:21:52;;;;;;;98.12;44.98;;;;;;;6.34;55.24;100120.67;4482782;77;21889;-85
2022/03/24 07:35:01;;;;;;;81.75;42.03;;;;;;;7.39;54.12;100119.03;4481993;77;20992;-85
2022/03/24 07:41:13;;;;;;;81.63;38.88;;;;;;;7.98;53.03;100110.33;4485049;78;20989;-86
2022/03/24 07:47:47;;;;;;;78.85;37.93;;;;;;;8.42;52.66;100110.27;4481903;77;21008;-85
2022/03/24 07:53:56;;;;;;;121.90;64.77;;;;;;;8.92;51.80;100117.20;4481734;77;20943;-86
2022/03/24 08:00:00;;;;;;;85.75;39.23;;;;;;;9.45;51.24;100110.80;4480292;77;20997;-84
2022/03/24 08:06:14;;;;;;;72.37;35.78;;;;;;;10.09;50.72;100110.91;4477121;77;21042;-86
2022/03/24 08:12:34;;;;;;;66.30;36.50;;;;;;;10.65;49.51;100106.54;4482192;77;21028;-86
2022/03/24 08:32:24;;;;;;;72.55;37.88;;;;;;;11.62;45.97;100104.02;4485885;77;20995;-87
2022/03/24 08:44:46;;;;;;;68.00;36.20;;;;;;;12.12;45.37;100121.12;4478356;77;21015;-86
2022/03/24 08:57:43;;;;;;;54.93;30.35;;;;;;;12.64;40.99;100115.95;4486309;77;21545;-85
2022/03/24 09:03:44;;;;;;;50.63;30.80;;;;;;;12.67;41.46;100130.34;4457723;79;21056;-87
2022/03/24 09:09:45;;;;;;;50.70;28.70;;;;;;;13.14;40.32;100126.02;4487735;77;21450;-85
2022/03/24 09:22:24;;;;;;;;;;;;;;;14.65;39.59;100129.80;4479175;77;21011;-86
2022/03/24 09:28:51;;;;;;;48.80;26.60;;;;;;;15.73;39.58;100121.11;4473981;77;20564;-87
2022/03/24 09:34:53;;;;;;;44.20;26.68;;;;;;;16.22;35.29;100098.80;4483739;77;21074;-87
2022/03/24 09:41:01;;;;;;;40.20;25.62;;;;;;;16.22;35.29;100098.80;4484417;77;21552;-86
2022/03/24 09:47:03;;;;;;;50.95;25.77;;;;;;;16.85;33.67;100122.60;4479964;77;20945;-86
2022/03/24 09:53:59;;;;;;;39.58;26.33;;;;;;;17.38;35.77;100123.34;4479291;77;21005;-87
2022/03/24 10:00:03;;;;;;;44.63;25.80;;;;;;;17.94;32.78;100128.35;4484501;77;21056;-86
2022/03/24 10:06:07;;;;;;;46.02;26.30;;;;;;;18.25;31.83;100121.97;4477077;77;22015;-86
2022/03/24 10:12:20;;;;;;;37.42;25.15;;;;;;;18.57;32.67;100121.92;4475472;77;21077;-87
2022/03/24 10:18:21;;;;;;;30.97;20.23;;;;;;;18.78;29.97;100120.44;4472946;77;21261;-85
2022/03/24 10:24:24;;;;;;;30.48;19.52;;;;;;;19.08;31.18;100115.15;4471390;77;21062;-85
2022/03/24 10:30:26;;;;;;;34.40;20.50;;;;;;;19.49;29.89;100117.51;4474590;77;21843;-87
2022/03/24 10:36:28;;;;;;;25.45;17.95;;;;;;;19.88;29.42;100114.41;4477953;77;21735;-85
2022/03/24 10:42:33;;;;;;;24.80;17.73;;;;;;;20.34;26.77;100109.23;4483437;77;21007;-88
2022/03/24 10:48:34;;;;;;;24.50;17.42;;;;;;;20.09;25.59;100110.83;4472975;77;21059;-85
2022/03/24 10:54:50;;;;;;;32.15;18.48;;;;;;;20.18;25.84;100105.63;4469241;77;20950;-86
2022/03/24 11:00:53;;;;;;;27.10;16.37;;;;;;;20.55;25.70;100103.42;4469923;78;20993;-85
2022/03/24 11:07:01;;;;;;;25.80;16.20;;;;;;;21.01;26.41;100095.92;4439739;78;22064;-85
2022/03/24 11:13:04;;;;;;;24.15;15.63;;;;;;;20.10;21.89;100087.41;4482408;78;21178;-86
2022/03/24 11:19:15;;;;;;;21.60;15.30;;;;;;;20.49;23.90;100080.64;4478069;78;21022;-87
2022/03/24 11:25:18;;;;;;;30.23;18.23;;;;;;;20.76;23.00;100071.77;4480086;78;21066;-86
2022/03/24 11:31:19;;;;;;;23.95;15.32;;;;;;;20.81;21.96;100072.70;4447868;78;20983;-86
2022/03/24 11:37:21;;;;;;;27.10;16.67;;;;;;;20.77;22.20;100058.03;4483083;78;21516;-87
2022/03/24 11:43:24;;;;;;;19.90;14.78;;;;;;;20.66;21.12;100053.20;4474290;78;21043;-86
2022/03/24 11:49:29;;;;;;;19.87;13.90;;;;;;;20.23;21.11;100053.72;4472540;77;21025;-86
2022/03/24 11:55:31;;;;;;;18.85;13.20;;;;;;;19.97;22.61;100050.20;4478263;77;21603;-86
2022/03/24 12:01:35;;;;;;;19.67;13.32;;;;;;;19.78;21.69;100045.85;4475744;77;21042;-87
2022/03/24 12:07:37;;;;;;;23.07;14.58;;;;;;;19.27;21.40;100043.06;4468975;77;21023;-86
2022/03/24 12:13:38;;;;;;;21.95;13.40;;;;;;;18.91;21.09;100035.58;4479211;77;21008;-87
2022/03/24 12:19:44;;;;;;;19.07;10.58;;;;;;;18.73;20.92;100031.33;4460152;78;21057;-86
2022/03/24 12:25:45;;;;;;;16.33;11.30;;;;;;;18.64;21.43;100027.01;4462476;78;21100;-85
2022/03/24 12:32:00;;;;;;;18.60;10.08;;;;;;;18.39;20.56;100022.76;4498390;78;20967;-86
2022/03/24 12:38:22;;;;;;;21.15;10.85;;;;;;;17.92;20.34;100024.66;4470162;78;20991;-85
2022/03/24 12:44:27;;;;;;;14.15;7.95;;;;;;;17.53;20.84;100022.53;4468834;78;21917;-85
2022/03/24 12:50:45;;;;;;;12.73;7.70;;;;;;;17.58;20.61;100022.14;4461127;78;21086;-85
2022/03/24 12:56:47;;;;;;;11.75;7.05;;;;;;;17.75;19.85;100017.17;4453996;78;21032;-84
2022/03/24 13:02:49;;;;;;;13.88;5.53;;;;;;;17.48;20.32;100009.12;4447846;78;21025;-85
2022/03/24 13:09:37;;;;;;;11.63;4.92;;;;;;;17.45;19.31;100011.27;4459747;78;20970;-86
2022/03/24 13:15:42;;;;;;;7.72;4.20;;;;;;;17.34;20.41;99999.41;4457251;78;21073;-85
2022/03/24 13:21:44;;;;;;;8.55;4.83;;;;;;;17.35;20.73;99995.44;4428494;78;21041;-85
2022/03/24 13:27:55;;;;;;;9.18;4.80;;;;;;;17.38;20.04;99982.19;4428252;78;21548;-85
2022/03/24 13:33:58;;;;;;;10.58;4.90;;;;;;;17.14;20.57;99979.05;4441256;78;21041;-86
2022/03/24 13:39:59;;;;;;;9.83;5.03;;;;;;;17.18;20.20;99976.25;4443179;78;20992;-86
2022/03/24 13:46:01;;;;;;;7.78;4.60;;;;;;;16.95;20.60;99969.73;4438868;78;21008;-86
2022/03/24 13:52:03;;;;;;;18.85;8.20;;;;;;;16.84;21.16;99960.64;4437418;78;21041;-87
2022/03/24 13:58:14;;;;;;;5.75;3.33;;;;;;;16.79;21.40;99956.08;4440369;78;21151;-85
2022/03/24 14:04:27;;;;;;;7.47;3.42;;;;;;;16.52;21.76;99945.19;4429525;78;22077;-86
2022/03/24 14:10:51;;;;;;;5.72;3.15;;;;;;;16.54;22.17;99942.22;4438316;78;20979;-86
2022/03/24 14:16:52;;;;;;;11.95;3.30;;;;;;;16.55;22.61;99937.48;4437065;78;21044;-85
2022/03/24 14:22:53;;;;;;;7.72;4.10;;;;;;;16.53;22.88;99935.70;4439044;78;21003;-86
2022/03/24 14:28:54;;;;;;;7.87;3.10;;;;;;;16.49;23.30;99934.92;4452843;78;20998;-86
2022/03/24 14:35:16;;;;;;;12.73;4.00;;;;;;;16.42;23.68;99931.52;4445502;78;21011;-87
2022/03/24 14:41:18;;;;;;;12.93;5.62;;;;;;;16.51;24.28;99929.19;4440777;78;21030;-86
2022/03/24 14:47:19;;;;;;;8.75;3.15;;;;;;;16.28;24.42;99919.05;4435014;78;20977;-86
2022/03/24 14:53:21;;;;;;;8.13;3.02;;;;;;;16.20;24.84;99913.29;4454274;78;21074;-86
2022/03/24 14:59:22;;;;;;;4.80;2.30;;;;;;;16.16;25.08;99907.56;4441686;78;21439;-86
2022/03/24 15:05:23;;;;;;;9.55;3.12;;;;;;;15.97;25.08;99903.16;4446978;78;21020;-86
2022/03/24 15:11:24;;;;;;;9.10;3.47;;;;;;;15.60;25.17;99901.99;4445315;78;20975;-85
2022/03/24 15:17:26;;;;;;;9.70;3.50;;;;;;;15.54;25.39;99898.02;4459603;77;21492;-86
2022/03/24 15:23:28;;;;;;;8.20;3.42;;;;;;;15.44;26.40;99897.97;4475661;77;21060;-86
2022/03/24 15:29:29;;;;;;;11.20;4.05;;;;;;;15.15;26.80;99898.34;4478553;77;21020;-86
2022/03/24 15:35:30;;;;;;;7.20;3.72;;;;;;;14.89;26.67;99898.52;4478394;77;20942;-85
2022/03/24 15:41:32;;;;;;;17.20;5.83;;;;;;;14.62;26.76;99900.45;4477822;77;21051;-86
2022/03/24 15:47:34;;;;;;;8.08;4.67;;;;;;;14.47;27.67;99904.25;4479414;77;21042;-85
2022/03/24 15:53:36;;;;;;;14.25;4.42;;;;;;;14.32;27.82;99903.89;4481876;77;21626;-86
2022/03/24 15:59:38;;;;;;;10.68;4.70;;;;;;;14.11;27.99;99907.97;4484132;77;21079;-85
2022/03/24 16:05:40;;;;;;;15.88;4.87;;;;;;;13.93;28.21;99902.86;4478852;77;21024;-86
2022/03/24 16:11:41;;;;;;;7.30;4.20;;;;;;;13.84;28.72;99907.83;4486908;77;21013;-85
2022/03/24 16:17:54;;;;;;;10.58;4.35;;;;;;;13.61;28.40;99900.27;4459370;77;21505;-85
2022/03/24 16:23:55;;;;;;;12.47;4.53;;;;;;;13.48;29.20;99906.38;4400826;80;22102;-86
2022/03/24 16:29:57;;;;;;;7.55;4.20;;;;;;;13.28;29.13;99909.82;4400607;79;21046;-86
2022/03/24 16:36:08;;;;;;;11.68;4.25;;;;;;;13.04;29.47;99920.45;4392958;79;21051;-86
2022/03/24 16:42:23;;;;;;;12.75;4.22;;;;;;;12.84;29.91;99925.78;4202359;83;21074;-87
2022/03/24 16:48:25;;;;;;;10.20;3.87;;;;;;;12.60;30.36;99920.08;4399873;80;21076;-85
2022/03/24 16:54:29;;;;;;;9.93;4.00;;;;;;;12.37;30.22;99920.05;4400221;79;20999;-86
2022/03/24 17:07:33;;;;;;;10.38;4.03;;;;;;;11.94;30.25;99934.12;4385499;80;21500;-86
2022/03/24 17:13:38;;;;;;;13.68;6.65;;;;;;;11.66;30.53;99933.53;4401487;79;20990;-86
2022/03/24 17:19:57;;;;;;;18.20;6.67;;;;;;;11.38;30.75;99926.02;4425797;78;21596;-85
2022/03/24 17:26:01;;;;;;;18.00;7.70;;;;;;;11.09;31.01;99938.83;4446785;78;21072;-85
2022/03/24 17:32:04;;;;;;;20.80;7.08;;;;;;;10.76;31.35;99943.31;4438620;78;21772;-85
2022/03/24 17:38:08;;;;;;;21.00;7.35;;;;;;;10.37;31.73;99951.09;4443360;78;21416;-85
2022/03/24 17:44:12;;;;;;;25.27;9.93;;;;;;;10.00;32.16;99951.56;4445625;78;21051;-85
2022/03/24 17:50:19;;;;;;;24.92;10.65;;;;;;;9.64;32.61;99961.25;4436581;78;21007;-85
2022/03/24 17:56:20;;;;;;;21.50;8.68;;;;;;;9.35;33.00;99963.12;4437398;78;21079;-85
2022/03/24 18:02:31;;;;;;;16.23;7.97;;;;;;;9.08;33.46;99969.27;4442434;78;21041;-85
2022/03/24 18:08:35;;;;;;;16.65;7.42;;;;;;;8.84;33.82;99972.56;4455244;78;21033;-86
2022/03/24 18:15:01;;;;;;;21.27;10.00;;;;;;;8.64;34.25;99979.71;4403363;79;21982;-85
2022/03/24 18:21:03;;;;;;;13.87;5.83;;;;;;;8.43;34.67;99991.23;4436347;78;21660;-85
2022/03/24 18:27:11;;;;;;;16.80;9.00;;;;;;;8.20;35.02;99987.83;4440288;78;21264;-86
2022/03/24 18:33:22;;;;;;;24.77;10.82;;;;;;;7.92;35.36;99991.69;4437415;78;21584;-85
2022/03/24 18:39:26;;;;;;;25.77;11.38;;;;;;;7.71;35.83;99997.69;4437376;78;20988;-85
2022/03/24 18:45:27;;;;;;;26.70;12.18;;;;;;;7.47;36.28;100000.28;4435697;78;20996;-85
2022/03/24 18:59:00;;;;;;;44.63;17.27;;;;;;;7.08;37.24;100006.09;4426098;78;21010;-85
2022/03/24 19:05:01;;;;;;;45.95;20.30;;;;;;;6.77;37.74;100013.16;4425502;78;21457;-85
2022/03/24 19:11:14;;;;;;;66.47;25.68;;;;;;;6.59;38.24;100017.07;4435349;78;21077;-85
2022/03/24 19:17:15;;;;;;;69.10;28.70;;;;;;;6.42;38.82;100019.83;4421586;79;21078;-86
2022/03/24 19:23:16;;;;;;;69.62;28.65;;;;;;;6.22;39.05;100022.64;4482903;77;20984;-85
2022/03/24 19:29:22;;;;;;;68.15;29.35;;;;;;;6.07;39.61;100034.01;4480089;77;21575;-86
2022/03/24 19:35:23;;;;;;;69.92;29.80;;;;;;;5.86;40.20;100030.31;4480174;77;20947;-85
2022/03/24 19:41:28;;;;;;;53.58;24.35;;;;;;;5.67;40.52;100031.71;4493884;77;20958;-84
2022/03/24 19:47:29;;;;;;;56.95;26.48;;;;;;;5.50;41.39;100030.30;4479707;77;21017;-86
2022/03/24 20:01:01;;;;;;;88.25;35.48;;;;;;;5.33;42.25;100041.92;4489031;77;20972;-84
2022/03/24 20:07:04;;;;;;;90.53;36.95;;;;;;;5.00;42.43;100044.75;4484378;77;20958;-84
2022/03/24 20:20:33;;;;;;;72.62;28.80;;;;;;;4.43;43.27;100056.57;4473517;77;21069;-84
2022/03/24 20:33:41;;;;;;;61.90;28.00;;;;;;;4.05;44.40;100059.38;4469067;78;21039;-84
2022/03/24 20:39:42;;;;;;;51.40;22.37;;;;;;;3.91;44.86;100062.69;4440403;78;20976;-84
2022/03/24 20:45:47;;;;;;;53.92;22.55;;;;;;;3.85;45.99;100062.55;4451986;78;20956;-84
2022/03/24 20:51:49;;;;;;;63.20;26.37;;;;;;;3.97;46.36;100064.98;4459364;78;21603;-84
2022/03/24 20:57:50;;;;;;;79.35;34.50;;;;;;;3.78;46.04;100070.28;4452829;78;20976;-84
2022/03/24 21:03:53;;;;;;;93.03;40.25;;;;;;;3.53;46.23;100073.52;4455086;78;21494;-83
2022/03/24 21:09:56;;;;;;;82.95;35.75;;;;;;;3.30;46.76;100075.91;4461350;78;21423;-83
2022/03/24 21:16:13;;;;;;;76.22;36.45;;;;;;;3.12;47.26;100081.11;4468721;78;21049;-84
2022/03/24 21:22:20;;;;;;;69.90;28.70;;;;;;;2.91;47.51;100075.03;4475094;77;21021;-84
2022/03/24 21:28:24;;;;;;;51.08;25.12;;;;;;;2.76;48.30;100076.09;4478357;77;21569;-85
2022/03/24 21:34:28;;;;;;;45.67;21.97;;;;;;;2.69;49.05;100080.30;4477190;77;21027;-84
2022/03/24 21:40:48;;;;;;;64.97;31.23;;;;;;;2.83;49.42;100088.70;4460753;77;21054;-84
2022/03/24 21:46:57;;;;;;;76.15;32.03;;;;;;;2.82;49.45;100088.42;4483706;77;20969;-84
2022/03/24 21:52:59;;;;;;;76.77;33.83;;;;;;;2.53;49.37;100092.45;4482283;77;22240;-84
2022/03/24 21:59:02;;;;;;;52.27;24.15;;;;;;;2.26;49.69;100087.75;4477566;77;20926;-84
2022/03/24 22:05:05;;;;;;;51.98;23.22;;;;;;;2.11;50.83;100089.88;4481794;77;21027;-85
2022/03/24 22:11:08;;;;;;;71.42;30.82;;;;;;;2.15;51.37;100083.60;4479986;77;21018;-84
2022/03/24 22:17:10;;;;;;;74.72;30.30;;;;;;;2.12;51.34;100083.38;4479779;77;21016;-84
2022/03/24 22:23:17;;;;;;;67.32;29.37;;;;;;;1.91;51.01;100076.69;4493568;77;21515;-84
2022/03/24 22:29:19;;;;;;;80.65;32.58;;;;;;;1.75;52.24;100080.14;4479950;77;22035;-85
2022/03/24 22:35:25;;;;;;;57.85;26.25;;;;;;;1.64;52.24;100084.07;4463355;77;21042;-84
2022/03/24 22:41:26;;;;;;;;;;;;;;;1.43;52.56;100080.83;4484845;77;20995;-84
2022/03/24 22:54:56;;;;;;;133.67;52.95;;;;;;;1.44;53.02;100073.55;4482408;77;20954;-84
2022/03/24 23:01:07;;;;;;;111.32;42.95;;;;;;;0.84;52.96;100076.38;4482241;77;21071;-84
2022/03/24 23:07:08;;;;;;;120.55;48.08;;;;;;;0.84;52.96;100076.38;4494327;77;21003;-84
2022/03/24 23:13:09;;;;;;;118.10;47.90;;;;;;;0.65;54.13;100085.45;4481143;77;21506;-83
2022/03/24 23:19:11;;;;;;;94.87;37.17;;;;;;;0.63;55.72;100065.52;4486169;77;21066;-83
2022/03/24 23:32:05;;;;;;;81.53;36.03;;;;;;;0.80;54.78;100078.02;4491704;77;21041;-83
2022/03/24 23:38:06;;;;;;;125.38;51.80;;;;;;;0.63;55.61;100082.22;4489846;77;21509;-85
2022/03/24 23:57:53;;;;;;;97.00;44.48;;;;;;;0.03;55.43;100080.84;4335203;80;21400;-83
